createdAt,value
2019-05-01T00:00:16.301Z,54.6
2019-05-01T00:05:03.446Z,54.7
2019-05-01T00:09:50.482Z,54.9
2019-05-01T00:14:37.508Z,54.9
2019-05-01T00:19:24.780Z,55.3
2019-05-01T00:24:12.427Z,55.5
2019-05-01T00:28:59.552Z,56.5
2019-05-01T00:33:46.673Z,56.3
2019-05-01T00:38:35.687Z,55.5
2019-05-01T00:43:23.059Z,55.7
2019-05-01T00:48:10.853Z,55.5
2019-05-01T00:52:58.971Z,56
2019-05-01T00:57:46.457Z,56.5
2019-05-01T01:02:33.512Z,57.1
2019-05-01T01:07:20.275Z,57.8
2019-05-01T01:12:08.136Z,57.8
2019-05-01T01:16:55.286Z,58.1
2019-05-01T01:21:43.290Z,58.2
2019-05-01T01:26:31.517Z,58.6
2019-05-01T01:31:21.067Z,58.7
2019-05-01T01:36:08.187Z,58.8
2019-05-01T01:40:55.302Z,59.7
2019-05-01T01:45:42.574Z,60
2019-05-01T01:50:29.440Z,60.2
2019-05-01T01:55:16.683Z,60.7
2019-05-01T02:00:04.422Z,60.9
2019-05-01T02:04:51.305Z,60.9
2019-05-01T02:09:38.399Z,61.3
2019-05-01T02:14:25.306Z,61.2
2019-05-01T02:19:12.296Z,61.4
2019-05-01T02:23:59.550Z,62.7
2019-05-01T02:28:00.136Z,64
2019-05-01T02:28:17.770Z,64
2019-05-01T02:28:33.900Z,63.9
2019-05-01T02:28:49.978Z,63.4
2019-05-01T02:29:05.753Z,63.4
2019-05-01T02:29:21.339Z,63.1
2019-05-01T02:29:36.972Z,63.1
2019-05-01T02:29:52.516Z,62.7
2019-05-01T02:30:08.052Z,62.7
2019-05-01T02:31:26.692Z,63
2019-05-01T02:36:15.600Z,63.4
2019-05-01T02:41:03.125Z,63.6
2019-05-01T02:45:50.155Z,63.4
2019-05-01T02:50:36.933Z,64.2
2019-05-01T02:55:24.657Z,63.8
2019-05-01T03:00:11.979Z,64
2019-05-01T03:04:58.949Z,64.3
2019-05-01T03:09:46.213Z,64.3
2019-05-01T03:14:33.886Z,64.6
2019-05-01T03:19:20.991Z,64.9
2019-05-01T03:23:21.688Z,65.9
2019-05-01T03:23:37.222Z,65.9
2019-05-01T03:23:52.867Z,65.6
2019-05-01T03:24:08.972Z,65.6
2019-05-01T03:25:11.198Z,66.3
2019-05-01T03:29:58.101Z,66.5
2019-05-01T03:34:51.899Z,66.4
2019-05-01T03:39:40.505Z,66.3
2019-05-01T03:44:27.458Z,66.7
2019-05-01T03:49:15.662Z,65.6
2019-05-01T03:54:02.766Z,65.3
2019-05-01T03:58:49.649Z,65.3
2019-05-01T04:03:36.341Z,66
2019-05-01T04:08:23.389Z,66.6
2019-05-01T04:13:10.857Z,66.6
2019-05-01T04:17:11.512Z,67.1
2019-05-01T04:17:27.039Z,67.1
2019-05-01T04:17:42.572Z,67.1
2019-05-01T04:17:58.114Z,67.1
2019-05-01T04:18:13.759Z,66.9
2019-05-01T04:18:29.333Z,66.7
2019-05-01T04:18:44.876Z,66.7
2019-05-01T04:19:00.398Z,66.3
2019-05-01T04:19:16.019Z,66.2
2019-05-01T04:19:32.081Z,66.2
2019-05-01T04:20:36.430Z,67.1
2019-05-01T04:25:23.725Z,66.8
2019-05-01T04:30:11.041Z,66.2
2019-05-01T04:34:58.051Z,65.4
2019-05-01T04:39:44.799Z,65.1
2019-05-01T04:44:31.914Z,64.9
2019-05-01T04:49:18.731Z,65.3
2019-05-01T04:54:08.013Z,66.3
2019-05-01T04:58:54.874Z,65.4
2019-05-01T05:03:43.062Z,66.3
2019-05-01T05:07:43.657Z,67
2019-05-01T05:07:59.414Z,67
2019-05-01T05:08:15.048Z,66.6
2019-05-01T05:08:30.621Z,66.6
2019-05-01T05:08:46.180Z,66.6
2019-05-01T05:09:01.737Z,66.6
2019-05-01T05:09:17.370Z,66.7
2019-05-01T05:09:32.935Z,66.4
2019-05-01T05:09:48.477Z,66.4
2019-05-01T05:10:04.004Z,66.3
2019-05-01T05:11:07.059Z,66.4
2019-05-01T05:15:53.822Z,66.4
2019-05-01T05:20:41.338Z,66.3
2019-05-01T05:25:28.352Z,66.2
2019-05-01T05:30:15.448Z,65.6
2019-05-01T05:35:02.840Z,65.6
2019-05-01T05:39:50.056Z,65.7
2019-05-01T05:44:37.468Z,65.1
2019-05-01T05:49:24.406Z,64.4
2019-05-01T05:54:13.753Z,64.9
2019-05-01T05:59:00.754Z,64
2019-05-01T06:03:47.730Z,64.6
2019-05-01T06:08:35.624Z,64.3
2019-05-01T06:13:23.112Z,63.4
2019-05-01T06:18:10.470Z,63
2019-05-01T06:22:57.336Z,61.9
2019-05-01T06:27:49.315Z,61.2
2019-05-01T06:32:39.939Z,60.8
2019-05-01T06:37:27.407Z,60.8
2019-05-01T06:42:15.539Z,59.7
2019-05-01T06:47:05.100Z,59.9
2019-05-01T06:51:53.189Z,58.7
2019-05-01T06:56:41.126Z,57.7
2019-05-01T07:01:27.831Z,57.2
2019-05-01T07:06:15.369Z,57
2019-05-01T07:11:02.392Z,56.1
2019-05-01T07:15:49.668Z,53.8
2019-05-01T07:20:38.629Z,53.7
2019-05-01T07:25:25.847Z,53.8
2019-05-01T07:30:15.864Z,52.6
2019-05-01T07:35:06.731Z,53.3
2019-05-01T07:39:54.248Z,54.2
2019-05-01T07:44:41.149Z,52.9
2019-05-01T07:49:28.369Z,50.8
2019-05-01T07:54:15.153Z,52.3
2019-05-01T07:59:02.249Z,50.4
2019-05-01T08:03:49.088Z,49.1
2019-05-01T08:08:39.603Z,47.5
2019-05-01T08:13:30.700Z,49.4
2019-05-01T08:18:24.145Z,48.1
2019-05-01T08:23:15.455Z,46.4
2019-05-01T08:28:02.364Z,44.7
2019-05-01T08:32:49.435Z,46
2019-05-01T08:37:36.528Z,44.2
2019-05-01T08:42:23.244Z,45.5
2019-05-01T08:47:10.148Z,44.5
2019-05-01T08:51:56.876Z,44
2019-05-01T08:56:44.995Z,43.7
2019-05-01T09:01:31.958Z,41.7
2019-05-01T09:06:19.197Z,42.3
2019-05-01T09:11:06.828Z,41.9
2019-05-01T09:15:54.699Z,42.4
2019-05-01T09:20:42.144Z,41.9
2019-05-01T09:25:30.939Z,40.6
2019-05-01T09:30:26.777Z,40.7
2019-05-01T09:35:15.812Z,39.6
2019-05-01T09:40:04.076Z,40.1
2019-05-01T09:44:55.491Z,39.8
2019-05-01T09:49:42.337Z,38.8
2019-05-01T09:54:29.676Z,37
2019-05-01T09:59:17.525Z,36.8
2019-05-01T10:04:06.432Z,34.6
2019-05-01T10:08:54.936Z,37.3
2019-05-01T10:13:42.271Z,37.3
2019-05-01T10:18:29.168Z,36.8
2019-05-01T10:23:18.409Z,38.1
2019-05-01T10:28:07.298Z,38.9
2019-05-01T10:32:59.696Z,38.3
2019-05-01T10:37:47.234Z,39.3
2019-05-01T10:42:34.187Z,38.6
2019-05-01T10:47:21.298Z,39.1
2019-05-01T10:52:14.196Z,38.9
2019-05-01T10:57:06.838Z,39
2019-05-01T11:01:54.938Z,37.3
2019-05-01T11:06:43.640Z,38.7
2019-05-01T11:11:31.374Z,36.6
2019-05-01T11:16:18.551Z,36.7
2019-05-01T11:21:05.788Z,36.3
2019-05-01T11:25:52.719Z,36.6
2019-05-01T11:30:40.924Z,36.3
2019-05-01T11:35:33.646Z,37
2019-05-01T11:40:20.916Z,38.3
2019-05-01T11:45:08.413Z,39.1
2019-05-01T11:49:55.800Z,40
2019-05-01T11:54:42.908Z,40.5
2019-05-01T11:59:32.585Z,40.9
2019-05-01T12:04:20.892Z,41.5
2019-05-01T12:09:08.535Z,42.1
2019-05-01T12:13:56.953Z,41.8
2019-05-01T12:18:43.770Z,42.6
2019-05-01T12:23:31.567Z,43.4
2019-05-01T12:28:18.557Z,42.6
2019-05-01T12:33:05.324Z,43.2
2019-05-01T12:37:55.269Z,43.8
2019-05-01T12:42:42.810Z,43.9
2019-05-01T12:47:30.410Z,43.7
2019-05-01T12:52:17.365Z,43.4
2019-05-01T12:57:04.318Z,44.2
2019-05-01T13:01:51.108Z,43.1
2019-05-01T13:06:48.842Z,41.5
2019-05-01T13:11:37.374Z,42.9
2019-05-01T13:16:25.225Z,43
2019-05-01T13:21:12.585Z,44.4
2019-05-01T13:25:59.772Z,44.6
2019-05-01T13:30:49.050Z,45.7
2019-05-01T13:35:36.160Z,46.9
2019-05-01T13:40:23.294Z,47.5
2019-05-01T13:45:10.406Z,47.7
2019-05-01T13:49:57.249Z,48.8
2019-05-01T13:54:44.294Z,50.8
2019-05-01T13:59:31.176Z,53
2019-05-01T14:04:21.385Z,54
2019-05-01T14:09:09.538Z,55.9
2019-05-01T14:13:59.382Z,57
2019-05-01T14:18:46.964Z,56.6
2019-05-01T14:23:34.589Z,56.1
2019-05-01T14:28:22.046Z,57.3
2019-05-01T14:33:09.414Z,58.6
2019-05-01T14:37:57.280Z,58.9
2019-05-01T14:42:44.612Z,57.8
2019-05-01T14:47:31.454Z,57.6
2019-05-01T14:52:18.945Z,57.6
2019-05-01T14:57:05.750Z,57.2
2019-05-01T15:01:53.134Z,57.4
2019-05-01T15:06:40.533Z,58.2
2019-05-01T15:11:27.399Z,58.7
2019-05-01T15:16:14.648Z,59
2019-05-01T15:21:02.421Z,59.1
2019-05-01T15:25:49.771Z,58.5
2019-05-01T15:30:36.758Z,57
2019-05-01T15:35:25.577Z,56.7
2019-05-01T15:40:13.271Z,57.4
2019-05-01T15:45:00.572Z,57.8
2019-05-01T15:49:47.966Z,56.8
2019-05-01T15:54:36.046Z,56.5
2019-05-01T15:59:25.415Z,56.6
2019-05-01T16:04:14.688Z,56.9
2019-05-01T16:09:01.796Z,57.2
2019-05-01T16:13:49.192Z,57.5
2019-05-01T16:18:36.768Z,57.6
2019-05-01T16:23:24.320Z,57.1
2019-05-01T16:28:11.138Z,54.7
2019-05-01T16:32:58.530Z,53
2019-05-01T16:37:45.787Z,51.2
2019-05-01T16:42:32.551Z,48.8
2019-05-01T16:47:19.511Z,49.2
2019-05-01T16:52:07.096Z,48.9
2019-05-01T16:56:54.375Z,49.1
2019-05-01T17:01:41.532Z,49.5
2019-05-01T17:06:28.657Z,51.5
2019-05-01T17:11:17.726Z,52.4
2019-05-01T17:16:04.705Z,52.5
2019-05-01T17:20:52.587Z,52.9
2019-05-01T17:25:40.887Z,53
2019-05-01T17:30:28.126Z,53.4
2019-05-01T17:35:15.685Z,53.8
2019-05-01T17:40:08.287Z,54.3
2019-05-01T17:44:55.924Z,54.4
2019-05-01T17:49:46.814Z,54.4
2019-05-01T17:54:34.069Z,55
2019-05-01T17:59:22.270Z,55.5
2019-05-01T18:04:14.685Z,55.7
2019-05-01T18:09:03.164Z,56.6
2019-05-01T18:13:56.861Z,57
2019-05-01T18:18:45.229Z,57.6
2019-05-01T18:23:32.017Z,57.7
2019-05-01T18:28:19.199Z,57.8
2019-05-01T18:33:06.026Z,58.4
2019-05-01T18:37:53.401Z,58.6
2019-05-01T18:42:40.533Z,58.7
2019-05-01T18:47:27.460Z,59.1
2019-05-01T18:52:14.571Z,59.1
2019-05-01T18:57:01.837Z,60.2
2019-05-01T19:01:49.723Z,61
2019-05-01T19:06:41.767Z,62.4
2019-05-01T19:11:31.336Z,61.6
2019-05-01T19:16:18.536Z,62.3
2019-05-01T19:21:05.797Z,63.2
2019-05-01T19:25:56.566Z,64.2
2019-05-01T19:30:48.548Z,64.2
2019-05-01T19:35:35.909Z,64.1
2019-05-01T19:40:25.212Z,63.9
2019-05-01T19:45:18.547Z,64.2
2019-05-01T19:50:07.520Z,64
2019-05-01T19:55:01.356Z,64.7
2019-05-01T19:59:53.193Z,65.3
2019-05-01T20:04:40.380Z,66.5
2019-05-01T20:09:27.986Z,66.3
2019-05-01T20:14:15.039Z,66.1
2019-05-01T20:19:01.916Z,66.9
2019-05-01T20:23:49.155Z,67
2019-05-01T20:28:37.370Z,68.4
2019-05-01T20:33:24.415Z,68.5
2019-05-01T20:38:11.249Z,68.7
2019-05-01T20:43:01.098Z,69.1
2019-05-01T20:47:54.366Z,69.1
2019-05-01T20:52:42.173Z,70.2
2019-05-01T20:56:42.816Z,71.4
2019-05-01T20:57:45.506Z,70.1
2019-05-01T21:02:32.977Z,71
2019-05-01T21:07:21.383Z,71.1
2019-05-01T21:12:08.284Z,70.4
2019-05-01T21:16:55.686Z,70.1
2019-05-01T21:21:43.454Z,71.4
2019-05-01T21:26:33.435Z,70.8
2019-05-01T21:30:38.672Z,72
2019-05-01T21:31:45.475Z,71.3
2019-05-01T21:36:32.564Z,71.1
2019-05-01T21:41:19.836Z,70.9
2019-05-01T21:46:06.762Z,71.2
2019-05-01T21:50:53.766Z,71.3
2019-05-01T21:55:45.586Z,71.9
2019-05-01T22:00:33.945Z,72.8
2019-05-01T22:05:21.222Z,72.9
2019-05-01T22:10:08.034Z,72.5
2019-05-01T22:14:54.990Z,72.5
2019-05-01T22:19:42.004Z,74.8
2019-05-01T22:24:28.769Z,74.4
2019-05-01T22:29:15.747Z,74.8
2019-05-01T22:34:02.847Z,75.9
2019-05-01T22:38:49.826Z,75.2
2019-05-01T22:43:37.497Z,75.2
2019-05-01T22:48:24.783Z,76.3
2019-05-01T22:52:25.402Z,78.4
2019-05-01T22:52:40.992Z,78.8
2019-05-01T22:52:56.647Z,78.9
2019-05-01T22:53:13.049Z,78.9
2019-05-01T22:53:29.924Z,78.9
2019-05-01T22:53:45.531Z,78.9
2019-05-01T22:54:48.931Z,78.2
2019-05-01T22:59:37.110Z,77.4
2019-05-01T23:04:23.835Z,77.9
2019-05-01T23:09:11.028Z,78.3
2019-05-01T23:13:58.216Z,78.1
2019-05-01T23:17:58.864Z,80
2019-05-01T23:18:15.380Z,80
2019-05-01T23:19:17.902Z,79.2
2019-05-01T23:24:06.480Z,79
2019-05-01T23:28:53.663Z,78.8
2019-05-01T23:33:40.410Z,79.4
2019-05-01T23:37:41.422Z,80.8
2019-05-01T23:37:57.882Z,80.8
2019-05-01T23:38:13.906Z,80.9
2019-05-01T23:38:29.526Z,81
2019-05-01T23:38:45.092Z,81
2019-05-01T23:39:00.606Z,81
2019-05-01T23:39:16.190Z,81
2019-05-01T23:39:39.745Z,81
2019-05-01T23:39:56.148Z,81
2019-05-01T23:40:15.514Z,81
2019-05-01T23:40:32.355Z,81
2019-05-01T23:40:50.937Z,80.9
2019-05-01T23:41:08.327Z,81
2019-05-01T23:41:44.575Z,80.6
2019-05-01T23:42:02.235Z,79.9
2019-05-01T23:42:17.872Z,79.6
2019-05-01T23:42:33.435Z,79.6
2019-05-01T23:43:35.816Z,79.2
2019-05-01T23:48:22.519Z,79.1
2019-05-01T23:53:13.975Z,80
2019-05-01T23:58:03.318Z,79.4
